LPPT/LIS METAR and TAF weather

Enter ICAO airport designator
Station Type Date Time Source
LPPT METAR 2019/10/15 21:30 UTC NOAA

LPPT 152130Z 24006KT CAVOK 15/12 Q1022


Station Type Date Time Source
LPPT Decoded METAR 2019/10/15 21:30 UTC NOAA

Lisboa / Portela, Portugal (LPPT) 38-46N 009-08W 123M
Oct 15, 2019 - 05:30 PM EDT / 2019.10.15 2130 UTC
Wind: from the WSW (240 degrees) at 7 MPH (6 KT):0
Visibility: greater than 7 mile(s):0
Temperature: 59 F (15 C)
Dew Point: 53 F (12 C)
Relative Humidity: 82%
Pressure (altimeter): 30.18 in. Hg (1022 hPa)
ob: LPPT 152130Z 24006KT CAVOK 15/12 Q1022
cycle: 21

Station Type Date Time Source
LPPT TAF 2019/10/15 18:18 UTC NOAA

TAF LPPT 151700Z 1518/1624 24010KT 9999 FEW030
BECMG 1522/1524 VRB03KT FEW015
BECMG 1609/1612 21010KT SCT025
BECMG 1620/1623 21005KT FEW015 SCT030

Example: see airport list